Bowdon Junction, Georgia
Current Conditions -  °F | °C
As of 8:15 PM on Tuesday 25 Nov 2014 (Local Time) from KPUJ Reporting Station
Scattered Clouds Scattered Clouds  
Wind Chill: 52°   Ceiling: Unl
Heat Index: 52°   Visibility: 10mi
Dew Point: 36°   Wind: 0mph
Humidity: 54%   Direction: NA
Pressure: 30.08"   Gusts: NA
Location:  33.66°N, 85.15°W
Report Text: KPUJ 260115Z AUTO 00000KT 10SM SCT120 11/02 A3008 RMK AO2
Loading
Personal Weather Stations






























Interactive Weather Map New forecast layout! Learn more

10-Day Weather Forecast

Advertisements
Track Severe Weather on mobile